createdAt,value
2019-05-11T00:00:56.620Z,0
2019-05-11T00:01:56.137Z,0
2019-05-11T00:02:56.059Z,0
2019-05-11T00:03:56.529Z,0
2019-05-11T00:04:56.118Z,0
2019-05-11T00:05:56.099Z,0
2019-05-11T00:06:56.029Z,0
2019-05-11T00:07:56.093Z,0
2019-05-11T00:08:56.101Z,0
2019-05-11T00:10:06.120Z,0
2019-05-11T00:10:56.034Z,0
2019-05-11T00:11:56.086Z,0
2019-05-11T00:12:56.128Z,0
2019-05-11T00:13:56.098Z,0
2019-05-11T00:14:56.114Z,0
2019-05-11T00:15:56.206Z,0
2019-05-11T00:16:56.075Z,0
2019-05-11T00:17:56.487Z,0
2019-05-11T00:19:07.764Z,0
2019-05-11T00:19:56.181Z,0
2019-05-11T00:20:56.147Z,0
2019-05-11T00:21:56.130Z,0
2019-05-11T00:22:56.139Z,0
2019-05-11T00:23:56.212Z,0
2019-05-11T00:24:56.298Z,0
2019-05-11T00:25:56.056Z,0
2019-05-11T00:26:56.107Z,0
2019-05-11T00:27:56.112Z,0
2019-05-11T00:28:56.122Z,0
2019-05-11T00:29:56.078Z,0
2019-05-11T00:30:56.126Z,0
2019-05-11T00:31:56.174Z,0
2019-05-11T00:32:56.107Z,0
2019-05-11T00:34:01.446Z,0
2019-05-11T00:34:56.081Z,0
2019-05-11T00:35:56.158Z,0
2019-05-11T00:36:56.084Z,0
2019-05-11T00:37:56.130Z,0
2019-05-11T00:38:56.141Z,0
2019-05-11T00:39:56.692Z,0
2019-05-11T00:40:56.133Z,0
2019-05-11T00:41:57.737Z,0
2019-05-11T00:42:56.148Z,0
2019-05-11T00:43:56.111Z,0
2019-05-11T00:44:56.185Z,0
2019-05-11T00:45:56.611Z,0
2019-05-11T00:46:56.151Z,0
2019-05-11T00:47:56.259Z,0
2019-05-11T00:49:06.066Z,0
2019-05-11T00:49:56.187Z,0
2019-05-11T00:50:56.184Z,0
2019-05-11T00:51:56.478Z,0
2019-05-11T00:52:56.227Z,0
2019-05-11T00:53:56.170Z,0
2019-05-11T00:54:56.195Z,0
2019-05-11T00:55:56.125Z,0
2019-05-11T00:57:01.188Z,0
2019-05-11T00:57:56.155Z,0
2019-05-11T00:58:58.730Z,0
2019-05-11T00:59:56.144Z,0
2019-05-11T01:00:56.300Z,0
2019-05-11T01:01:56.144Z,0
2019-05-11T01:02:56.104Z,0
2019-05-11T01:03:56.214Z,0
2019-05-11T01:04:56.221Z,0
2019-05-11T01:05:56.338Z,0
2019-05-11T01:06:56.151Z,0
2019-05-11T01:09:14.618Z,0
2019-05-11T01:10:43.668Z,0
2019-05-11T01:11:14.219Z,0
2019-05-11T01:12:14.271Z,0
2019-05-11T01:13:14.260Z,0
2019-05-11T01:14:14.264Z,0
2019-05-11T01:15:14.288Z,0
2019-05-11T01:16:14.280Z,0
2019-05-11T01:17:14.340Z,0
2019-05-11T01:18:14.225Z,0
2019-05-11T01:19:14.818Z,0
2019-05-11T01:20:14.389Z,0
2019-05-11T01:21:14.646Z,0
2019-05-11T01:22:14.371Z,0
2019-05-11T01:23:14.352Z,0
2019-05-11T01:24:14.435Z,0
2019-05-11T01:25:14.292Z,0
2019-05-11T01:26:14.310Z,0
2019-05-11T01:27:14.594Z,0
2019-05-11T01:28:14.326Z,0
2019-05-11T01:29:14.657Z,0
2019-05-11T01:30:14.746Z,0
2019-05-11T01:31:14.443Z,0
2019-05-11T01:32:14.367Z,0
2019-05-11T01:33:14.767Z,0
2019-05-11T01:34:14.267Z,0
2019-05-11T01:35:14.292Z,0
2019-05-11T01:36:14.277Z,0
2019-05-11T01:37:14.323Z,0
2019-05-11T01:38:14.431Z,0
2019-05-11T01:39:14.645Z,0
2019-05-11T01:40:14.301Z,0
2019-05-11T01:41:14.371Z,0
2019-05-11T01:42:14.315Z,0
2019-05-11T01:43:14.327Z,0
2019-05-11T01:44:14.288Z,0
2019-05-11T01:45:14.319Z,0
2019-05-11T01:46:14.343Z,0
2019-05-11T01:47:14.327Z,0
2019-05-11T01:48:14.395Z,0
2019-05-11T01:49:14.367Z,0
2019-05-11T01:50:14.297Z,0
2019-05-11T01:51:14.597Z,0
2019-05-11T01:52:14.307Z,0
2019-05-11T01:53:14.297Z,0
2019-05-11T01:54:14.323Z,0
2019-05-11T01:55:14.677Z,0
2019-05-11T01:56:14.338Z,0
2019-05-11T01:57:14.320Z,0
2019-05-11T01:58:14.322Z,0
2019-05-11T01:59:14.374Z,0
2019-05-11T02:00:14.324Z,0
2019-05-11T02:01:14.358Z,0
2019-05-11T02:02:15.842Z,0
2019-05-11T02:03:14.375Z,0
2019-05-11T02:04:14.297Z,0
2019-05-11T02:05:14.374Z,0
2019-05-11T02:06:14.419Z,0
2019-05-11T02:07:14.402Z,0
2019-05-11T02:08:14.559Z,0
2019-05-11T02:15:42.696Z,0
2019-05-11T02:16:53.704Z,0
2019-05-11T02:17:54.153Z,0
2019-05-11T02:18:53.694Z,0
2019-05-11T02:19:53.735Z,0
2019-05-11T02:20:54.051Z,0
2019-05-11T02:21:53.709Z,0
2019-05-11T02:22:53.754Z,0
2019-05-11T02:23:53.763Z,0
2019-05-11T02:24:53.953Z,0
2019-05-11T02:25:53.713Z,0
2019-05-11T02:26:53.997Z,0
2019-05-11T02:27:53.687Z,0
2019-05-11T02:28:53.735Z,0
2019-05-11T02:29:53.737Z,0
2019-05-11T02:30:53.729Z,0
2019-05-11T02:31:53.734Z,0
2019-05-11T02:32:53.740Z,0
2019-05-11T02:33:53.685Z,0
2019-05-11T02:34:53.708Z,0
2019-05-11T02:35:53.756Z,0
2019-05-11T02:36:53.741Z,0
2019-05-11T02:37:53.752Z,0
2019-05-11T02:38:53.737Z,0
2019-05-11T02:39:53.692Z,0
2019-05-11T02:45:11.009Z,0
2019-05-11T02:46:22.025Z,0
2019-05-11T02:47:21.990Z,0
2019-05-11T02:48:22.022Z,0
2019-05-11T02:49:22.069Z,0
2019-05-11T02:50:22.057Z,0
2019-05-11T02:51:22.079Z,0
2019-05-11T02:52:22.063Z,0
2019-05-11T02:53:21.987Z,0
2019-05-11T02:54:22.057Z,0
2019-05-11T02:55:22.188Z,0
2019-05-11T02:56:22.049Z,0
2019-05-11T02:57:22.018Z,0
2019-05-11T02:58:22.047Z,0
2019-05-11T02:59:22.047Z,0
2019-05-11T03:00:22.140Z,0
2019-05-11T03:01:22.043Z,0
2019-05-11T03:02:22.005Z,0
2019-05-11T03:03:22.356Z,0
2019-05-11T03:04:22.066Z,0
2019-05-11T03:05:22.009Z,0
2019-05-11T03:06:22.145Z,0
2019-05-11T03:07:22.059Z,0
2019-05-11T03:08:22.031Z,0
2019-05-11T03:09:21.992Z,0
2019-05-11T03:10:22.025Z,0
2019-05-11T03:11:22.006Z,0
2019-05-11T03:12:22.320Z,0
2019-05-11T03:13:22.099Z,0
2019-05-11T03:14:22.108Z,0
2019-05-11T03:15:22.496Z,0
2019-05-11T03:16:22.111Z,0
2019-05-11T03:17:22.069Z,0
2019-05-11T03:18:22.022Z,0
2019-05-11T03:19:26.190Z,0
2019-05-11T03:20:22.152Z,0
2019-05-11T03:21:22.610Z,0
2019-05-11T03:22:22.122Z,0
2019-05-11T03:23:22.116Z,0
2019-05-11T03:24:26.507Z,0
2019-05-11T03:25:22.045Z,0
2019-05-11T03:26:22.052Z,0
2019-05-11T03:27:22.103Z,0
2019-05-11T03:28:22.435Z,0
2019-05-11T03:29:22.034Z,0
2019-05-11T03:30:22.081Z,0
2019-05-11T03:31:22.123Z,0
2019-05-11T03:32:22.165Z,4
2019-05-11T03:33:22.778Z,0
2019-05-11T03:34:22.142Z,0
2019-05-11T03:35:22.148Z,0
2019-05-11T03:36:22.040Z,0
2019-05-11T03:37:22.108Z,4
2019-05-11T03:38:22.050Z,0
2019-05-11T03:39:22.067Z,4
2019-05-11T03:40:22.124Z,0
2019-05-11T03:41:22.291Z,0
2019-05-11T03:42:23.266Z,0
2019-05-11T03:43:22.163Z,0
2019-05-11T03:44:22.131Z,0
2019-05-11T03:45:22.768Z,4
2019-05-11T03:46:22.021Z,0
2019-05-11T03:47:22.104Z,4
2019-05-11T03:48:22.056Z,0
2019-05-11T03:49:25.540Z,4
2019-05-11T03:50:22.090Z,4
2019-05-11T03:51:22.138Z,4
2019-05-11T03:52:22.041Z,4
2019-05-11T03:53:22.136Z,4
2019-05-11T03:54:22.068Z,4
2019-05-11T03:55:22.140Z,4
2019-05-11T03:56:22.105Z,0
2019-05-11T03:57:23.504Z,4
2019-05-11T03:58:25.716Z,4
2019-05-11T04:05:48.896Z,4
2019-05-11T04:05:59.969Z,4
2019-05-11T04:06:59.939Z,0
2019-05-11T04:07:59.901Z,0
2019-05-11T04:08:59.917Z,4
2019-05-11T04:09:59.917Z,4
2019-05-11T04:10:59.907Z,4
2019-05-11T04:11:59.907Z,4
2019-05-11T04:12:59.897Z,4
2019-05-11T04:13:59.947Z,8
2019-05-11T04:14:59.870Z,4
2019-05-11T04:19:30.058Z,4
2019-05-11T04:20:41.533Z,4
2019-05-11T04:21:41.112Z,8
2019-05-11T04:22:41.030Z,8
2019-05-11T04:23:41.078Z,8
2019-05-11T04:24:41.517Z,8
2019-05-11T04:25:41.091Z,4
2019-05-11T04:26:41.061Z,8
2019-05-11T04:27:41.761Z,8
2019-05-11T04:28:41.084Z,8
2019-05-11T04:29:43.276Z,8
2019-05-11T04:30:41.475Z,8
2019-05-11T04:31:41.155Z,4
2019-05-11T04:32:41.059Z,8
2019-05-11T04:33:41.575Z,8
2019-05-11T04:34:41.050Z,8
2019-05-11T04:35:41.078Z,4
2019-05-11T04:36:41.113Z,8
2019-05-11T04:37:41.121Z,4
2019-05-11T04:38:41.053Z,8
2019-05-11T04:39:41.099Z,16
2019-05-11T04:44:59.117Z,24
2019-05-11T04:45:10.239Z,32
2019-05-11T04:46:10.310Z,32
2019-05-11T04:47:10.350Z,32
2019-05-11T04:48:10.343Z,28
2019-05-11T04:49:10.225Z,32
2019-05-11T04:50:11.356Z,36
2019-05-11T04:51:10.339Z,36
2019-05-11T04:52:10.189Z,44
2019-05-11T04:53:10.273Z,40
2019-05-11T04:54:11.239Z,40
2019-05-11T04:59:28.668Z,44
2019-05-11T04:59:39.651Z,48
2019-05-11T05:00:39.648Z,48
2019-05-11T05:01:39.851Z,44
2019-05-11T05:02:39.600Z,44
2019-05-11T05:04:13.203Z,44
2019-05-11T05:04:39.675Z,44
2019-05-11T05:05:40.021Z,48
2019-05-11T05:06:41.633Z,48
2019-05-11T05:07:47.537Z,48
2019-05-11T05:08:39.656Z,56
2019-05-11T05:09:50.058Z,56
2019-05-11T05:10:39.613Z,52
2019-05-11T05:11:44.982Z,52
2019-05-11T05:12:39.745Z,48
2019-05-11T05:13:39.674Z,48
2019-05-11T05:14:39.665Z,48
2019-05-11T05:15:39.744Z,36
2019-05-11T05:16:40.098Z,36
2019-05-11T05:17:41.807Z,52
2019-05-11T05:18:39.664Z,64
2019-05-11T05:19:41.021Z,60
2019-05-11T05:20:41.734Z,60
2019-05-11T05:21:39.791Z,60
2019-05-11T05:22:39.669Z,56
2019-05-11T05:23:39.635Z,60
2019-05-11T05:24:39.733Z,64
2019-05-11T05:25:39.687Z,60
2019-05-11T05:26:39.654Z,56
2019-05-11T05:27:39.621Z,48
2019-05-11T05:28:39.647Z,36
2019-05-11T05:29:39.782Z,32
2019-05-11T05:30:39.687Z,32
2019-05-11T05:31:39.669Z,40
2019-05-11T05:32:39.714Z,44
2019-05-11T05:33:40.190Z,56
2019-05-11T05:34:40.151Z,68
2019-05-11T05:35:39.752Z,84
2019-05-11T05:36:39.760Z,100
2019-05-11T05:37:39.793Z,108
2019-05-11T05:38:39.854Z,112
2019-05-11T05:39:39.719Z,112
2019-05-11T05:44:56.954Z,84
2019-05-11T05:46:07.987Z,80
2019-05-11T05:47:07.994Z,80
2019-05-11T05:48:08.206Z,84
2019-05-11T05:49:07.999Z,92
2019-05-11T05:50:08.051Z,108
2019-05-11T05:51:08.181Z,116
2019-05-11T05:52:08.212Z,120
2019-05-11T05:53:07.984Z,124
2019-05-11T05:54:07.938Z,120
2019-05-11T05:55:10.216Z,116
2019-05-11T05:56:08.069Z,120
2019-05-11T05:57:07.934Z,124
2019-05-11T05:58:07.981Z,132
2019-05-11T05:59:07.979Z,136
2019-05-11T06:00:08.059Z,144
2019-05-11T06:01:10.160Z,152
2019-05-11T06:05:38.870Z,188
2019-05-11T06:06:38.837Z,200
2019-05-11T06:07:38.941Z,204
2019-05-11T06:08:38.825Z,204
2019-05-11T06:09:38.856Z,192
2019-05-11T06:10:38.960Z,184
2019-05-11T06:11:39.255Z,180
2019-05-11T06:12:39.254Z,188
2019-05-11T06:13:53.094Z,216
2019-05-11T06:14:38.989Z,240
2019-05-11T06:15:39.005Z,264
2019-05-11T06:16:38.940Z,284
2019-05-11T06:17:39.071Z,292
2019-05-11T06:18:39.282Z,272
2019-05-11T06:19:48.375Z,264
2019-05-11T06:24:57.126Z,392
2019-05-11T06:25:08.578Z,336
2019-05-11T06:26:08.254Z,360
2019-05-11T06:27:08.245Z,412
2019-05-11T06:28:08.248Z,1192
2019-05-11T06:29:08.273Z,420
2019-05-11T06:30:08.219Z,404
2019-05-11T06:31:08.252Z,292
2019-05-11T06:32:08.238Z,220
2019-05-11T06:33:08.750Z,160
2019-05-11T06:34:08.209Z,140
2019-05-11T06:35:08.398Z,140
2019-05-11T06:36:09.367Z,152
2019-05-11T06:37:08.247Z,160
2019-05-11T06:38:08.149Z,164
2019-05-11T06:39:08.182Z,164
2019-05-11T06:40:08.423Z,156
2019-05-11T06:41:08.150Z,160
2019-05-11T06:42:08.449Z,164
2019-05-11T06:43:08.142Z,172
2019-05-11T06:44:10.054Z,188
2019-05-11T06:45:08.239Z,188
2019-05-11T06:46:08.242Z,184
2019-05-11T06:47:08.221Z,176
2019-05-11T06:48:08.638Z,168
2019-05-11T06:49:08.202Z,168
2019-05-11T06:50:08.273Z,164
2019-05-11T06:51:08.199Z,160
2019-05-11T06:52:08.243Z,148
2019-05-11T06:53:08.208Z,132
2019-05-11T06:54:08.564Z,116
2019-05-11T06:55:08.253Z,100
2019-05-11T06:56:08.269Z,96
2019-05-11T06:57:08.358Z,124
2019-05-11T06:58:08.282Z,168
2019-05-11T06:59:08.187Z,188
2019-05-11T07:00:08.684Z,196
2019-05-11T07:01:08.261Z,188
2019-05-11T07:02:08.329Z,172
2019-05-11T07:03:08.851Z,160
2019-05-11T07:04:08.218Z,144
2019-05-11T07:05:08.225Z,132
2019-05-11T07:06:08.258Z,148
2019-05-11T07:07:08.256Z,152
2019-05-11T07:08:08.433Z,144
2019-05-11T07:09:08.290Z,148
2019-05-11T07:10:08.283Z,144
2019-05-11T07:11:08.208Z,136
2019-05-11T07:12:16.454Z,120
2019-05-11T07:13:08.255Z,136
2019-05-11T07:14:25.102Z,168
2019-05-11T07:15:08.248Z,188
2019-05-11T07:16:08.856Z,216
2019-05-11T07:17:08.283Z,224
2019-05-11T07:18:11.284Z,224
2019-05-11T07:19:10.863Z,236
2019-05-11T07:20:11.175Z,256
2019-05-11T07:21:11.233Z,292
2019-05-11T07:22:08.398Z,368
2019-05-11T07:23:08.404Z,440
2019-05-11T07:24:08.589Z,688
2019-05-11T07:25:08.515Z,456
2019-05-11T07:26:08.260Z,2216
2019-05-11T07:27:08.267Z,1920
2019-05-11T07:28:08.350Z,1492
2019-05-11T07:29:08.685Z,3020
2019-05-11T07:30:08.787Z,3024
2019-05-11T07:36:47.764Z,608
2019-05-11T07:37:50.624Z,684
2019-05-11T07:38:48.689Z,740
2019-05-11T07:39:48.852Z,2804
2019-05-11T07:40:47.695Z,1208
2019-05-11T07:41:48.037Z,896
2019-05-11T07:42:48.595Z,808
2019-05-11T07:43:48.435Z,640
2019-05-11T07:44:51.366Z,748
2019-05-11T07:45:48.085Z,700
2019-05-11T07:46:48.415Z,632
2019-05-11T07:47:48.648Z,684
2019-05-11T07:48:47.886Z,576
2019-05-11T07:49:55.042Z,608
2019-05-11T07:50:48.000Z,644
2019-05-11T07:51:48.092Z,644
2019-05-11T07:52:48.365Z,628
2019-05-11T07:53:48.584Z,500
2019-05-11T07:54:57.742Z,452
2019-05-11T07:55:48.557Z,396
2019-05-11T07:56:50.421Z,360
2019-05-11T07:57:50.695Z,296
2019-05-11T07:58:50.736Z,244
2019-05-11T07:59:54.147Z,212
2019-05-11T08:00:48.818Z,208
2019-05-11T08:01:47.993Z,228
2019-05-11T08:02:48.171Z,236
2019-05-11T08:03:48.238Z,260
2019-05-11T08:04:48.123Z,248
2019-05-11T08:05:47.897Z,240
2019-05-11T08:06:50.584Z,236
2019-05-11T08:07:48.108Z,232
2019-05-11T08:08:48.973Z,228
2019-05-11T08:09:51.016Z,220
2019-05-11T08:10:48.250Z,224
2019-05-11T08:11:47.850Z,240
2019-05-11T08:12:48.221Z,260
2019-05-11T08:13:48.045Z,276
2019-05-11T08:15:18.481Z,292
2019-05-11T08:15:48.784Z,292
2019-05-11T08:16:50.634Z,292
2019-05-11T08:17:48.967Z,284
2019-05-11T08:18:48.228Z,296
2019-05-11T08:20:02.448Z,328
2019-05-11T08:20:51.460Z,328
2019-05-11T08:21:48.227Z,308
2019-05-11T08:22:48.150Z,292
2019-05-11T08:23:48.524Z,300
2019-05-11T08:24:48.216Z,300
2019-05-11T08:25:54.344Z,312
2019-05-11T08:26:50.719Z,320
2019-05-11T08:27:48.593Z,328
2019-05-11T08:28:48.553Z,336
2019-05-11T08:29:48.708Z,336
2019-05-11T08:30:51.292Z,332
2019-05-11T08:31:48.730Z,340
2019-05-11T08:32:49.417Z,332
2019-05-11T08:33:50.767Z,296
2019-05-11T08:34:49.132Z,264
2019-05-11T08:35:49.365Z,240
2019-05-11T08:36:48.179Z,248
2019-05-11T08:37:47.932Z,260
2019-05-11T08:38:52.475Z,272
2019-05-11T08:39:48.674Z,284
2019-05-11T08:40:49.069Z,288
2019-05-11T08:41:48.900Z,288
2019-05-11T08:42:51.415Z,304
2019-05-11T08:43:50.626Z,352
2019-05-11T08:44:51.205Z,332
2019-05-11T08:45:48.478Z,352
2019-05-11T08:46:47.925Z,424
2019-05-11T08:47:48.687Z,464
2019-05-11T08:48:50.457Z,448
2019-05-11T08:49:58.902Z,432
2019-05-11T08:50:48.801Z,440
2019-05-11T08:51:47.843Z,464
2019-05-11T08:52:47.966Z,504
2019-05-11T08:53:47.968Z,516
2019-05-11T08:54:48.636Z,552
2019-05-11T08:55:48.507Z,1816
2019-05-11T08:56:48.604Z,2096
2019-05-11T08:57:48.006Z,1848
2019-05-11T08:58:49.167Z,1352
2019-05-11T08:59:48.379Z,1564
2019-05-11T09:00:47.829Z,1396
2019-05-11T09:01:48.345Z,1240
2019-05-11T09:02:52.335Z,1240
2019-05-11T09:03:47.827Z,1076
2019-05-11T09:04:51.076Z,1016
2019-05-11T09:05:48.529Z,1024
2019-05-11T09:06:47.997Z,992
2019-05-11T09:07:48.342Z,1232
2019-05-11T09:08:49.257Z,1228
2019-05-11T09:09:48.344Z,980
2019-05-11T09:10:48.971Z,800
2019-05-11T09:11:48.094Z,740
2019-05-11T09:12:48.763Z,772
2019-05-11T09:13:48.800Z,832
2019-05-11T09:14:47.950Z,836
2019-05-11T09:15:50.946Z,732
2019-05-11T09:16:48.846Z,680
2019-05-11T09:17:48.727Z,628
2019-05-11T09:18:48.018Z,468
2019-05-11T09:20:01.385Z,400
2019-05-11T09:20:52.136Z,460
2019-05-11T09:21:48.143Z,420
2019-05-11T09:22:48.636Z,384
2019-05-11T09:23:51.435Z,368
2019-05-11T09:24:50.437Z,356
2019-05-11T09:25:50.330Z,324
2019-05-11T09:26:51.255Z,316
2019-05-11T09:27:54.494Z,292
2019-05-11T09:28:50.566Z,276
2019-05-11T09:29:53.997Z,288
2019-05-11T09:30:50.973Z,256
2019-05-11T09:31:48.663Z,212
2019-05-11T09:32:52.018Z,188
2019-05-11T09:33:50.713Z,164
2019-05-11T09:34:52.264Z,152
2019-05-11T09:36:02.243Z,132
2019-05-11T09:36:50.723Z,128
2019-05-11T09:37:53.255Z,136
2019-05-11T09:38:49.146Z,176
2019-05-11T09:39:48.370Z,224
2019-05-11T09:40:52.219Z,276
2019-05-11T09:41:48.883Z,332
2019-05-11T09:42:51.098Z,500
2019-05-11T09:43:51.064Z,376
2019-05-11T09:44:51.085Z,348
2019-05-11T09:45:58.201Z,328
2019-05-11T09:46:52.784Z,352
2019-05-11T09:47:51.464Z,408
2019-05-11T09:48:48.698Z,440
2019-05-11T09:50:03.510Z,376
2019-05-11T09:50:50.855Z,324
2019-05-11T09:51:48.231Z,280
2019-05-11T09:52:48.882Z,244
2019-05-11T09:53:48.204Z,220
2019-05-11T09:54:48.689Z,200
2019-05-11T09:55:48.170Z,176
2019-05-11T09:56:48.707Z,164
2019-05-11T09:57:48.641Z,156
2019-05-11T09:58:48.056Z,156
2019-05-11T09:59:47.848Z,168
2019-05-11T10:00:47.869Z,184
2019-05-11T10:01:48.272Z,192
2019-05-11T10:02:48.714Z,196
2019-05-11T10:03:48.269Z,184
2019-05-11T10:04:48.507Z,164
2019-05-11T10:05:48.659Z,144
2019-05-11T10:06:48.193Z,140
2019-05-11T10:07:48.421Z,152
2019-05-11T10:08:48.613Z,172
2019-05-11T10:09:47.916Z,208
2019-05-11T10:10:48.768Z,264
2019-05-11T10:11:48.120Z,308
2019-05-11T10:12:48.507Z,324
2019-05-11T10:13:47.794Z,344
2019-05-11T10:14:48.551Z,340
2019-05-11T10:16:07.282Z,328
2019-05-11T10:20:05.728Z,368
2019-05-11T10:20:18.304Z,368
2019-05-11T10:21:18.881Z,372
2019-05-11T10:22:18.615Z,384
2019-05-11T10:23:18.684Z,428
2019-05-11T10:24:20.374Z,528
2019-05-11T10:25:18.237Z,1648
2019-05-11T10:26:18.618Z,816
2019-05-11T10:27:22.771Z,540
2019-05-11T10:28:20.387Z,580
2019-05-11T10:29:18.417Z,1452
2019-05-11T10:30:18.587Z,1132
2019-05-11T10:31:20.525Z,940
2019-05-11T10:32:18.345Z,792
2019-05-11T10:33:18.786Z,740
2019-05-11T10:34:20.449Z,1244
2019-05-11T10:35:18.464Z,668
2019-05-11T10:36:18.777Z,592
2019-05-11T10:37:20.241Z,588
2019-05-11T10:38:18.185Z,576
2019-05-11T10:39:18.597Z,596
2019-05-11T10:40:18.853Z,584
2019-05-11T10:41:20.634Z,572
2019-05-11T10:42:18.110Z,568
2019-05-11T10:43:18.414Z,552
2019-05-11T10:44:18.734Z,552
2019-05-11T10:45:20.538Z,592
2019-05-11T10:46:31.217Z,632
2019-05-11T10:47:18.496Z,664
2019-05-11T10:48:20.352Z,688
2019-05-11T10:49:18.561Z,668
2019-05-11T10:50:18.686Z,628
2019-05-11T10:51:18.503Z,576
2019-05-11T10:52:20.591Z,520
2019-05-11T10:53:18.565Z,472
2019-05-11T10:54:18.775Z,448
2019-05-11T10:55:19.266Z,456
2019-05-11T10:56:20.471Z,520
2019-05-11T10:57:18.972Z,908
2019-05-11T10:58:18.500Z,816
2019-05-11T10:59:21.606Z,928
2019-05-11T11:00:20.378Z,1252
2019-05-11T11:05:35.136Z,1712
2019-05-11T11:06:48.481Z,1756
2019-05-11T11:07:48.354Z,1780
2019-05-11T11:08:48.593Z,1468
2019-05-11T11:09:49.016Z,1240
2019-05-11T11:10:48.289Z,1284
2019-05-11T11:11:48.769Z,1176
2019-05-11T11:12:48.919Z,1104
2019-05-11T11:13:47.965Z,800
2019-05-11T11:14:48.154Z,756
2019-05-11T11:15:48.437Z,596
2019-05-11T11:16:53.492Z,608
2019-05-11T11:17:51.314Z,908
2019-05-11T11:18:48.695Z,1912
2019-05-11T11:19:48.591Z,1984
2019-05-11T11:20:48.811Z,1688
2019-05-11T11:21:48.701Z,1600
2019-05-11T11:22:53.740Z,1392
2019-05-11T11:23:47.987Z,1592
2019-05-11T11:24:48.129Z,1736
2019-05-11T11:25:48.099Z,592
2019-05-11T11:26:48.554Z,592
2019-05-11T11:27:48.587Z,660
2019-05-11T11:28:47.855Z,780
2019-05-11T11:29:47.527Z,852
2019-05-11T11:30:48.013Z,812
2019-05-11T11:31:48.104Z,784
2019-05-11T11:32:48.210Z,760
2019-05-11T11:33:48.861Z,608
2019-05-11T11:34:48.448Z,528
2019-05-11T11:35:47.745Z,516
2019-05-11T11:36:48.107Z,556
2019-05-11T11:37:47.837Z,608
2019-05-11T11:38:47.751Z,616
2019-05-11T11:39:47.611Z,596
2019-05-11T11:40:50.974Z,608
2019-05-11T11:41:48.520Z,660
2019-05-11T11:42:47.758Z,732
2019-05-11T11:43:48.266Z,800
2019-05-11T11:44:48.333Z,924
2019-05-11T11:45:48.399Z,1024
2019-05-11T11:47:04.408Z,1840
2019-05-11T11:47:49.249Z,1604
2019-05-11T11:48:48.774Z,2212
2019-05-11T11:49:47.546Z,2112
2019-05-11T11:50:48.036Z,2112
2019-05-11T11:51:48.396Z,1968
2019-05-11T11:52:50.552Z,2116
2019-05-11T11:53:47.679Z,1932
2019-05-11T11:54:47.874Z,1636
2019-05-11T11:55:48.146Z,1808
2019-05-11T11:56:48.484Z,1960
2019-05-11T11:57:48.622Z,1996
2019-05-11T11:58:48.724Z,1860
2019-05-11T11:59:48.054Z,708
2019-05-11T12:00:48.169Z,1040
2019-05-11T12:01:48.677Z,1060
2019-05-11T12:02:48.679Z,1520
2019-05-11T12:03:48.703Z,760
2019-05-11T12:04:48.557Z,1028
2019-05-11T12:05:47.676Z,528
2019-05-11T12:06:48.972Z,444
2019-05-11T12:07:48.984Z,380
2019-05-11T12:08:49.603Z,328
2019-05-11T12:09:48.346Z,308
2019-05-11T12:10:48.413Z,308
2019-05-11T12:11:48.559Z,300
2019-05-11T12:12:47.613Z,332
2019-05-11T12:13:47.526Z,388
2019-05-11T12:14:47.926Z,440
2019-05-11T12:15:48.287Z,484
2019-05-11T12:16:47.917Z,504
2019-05-11T12:17:48.255Z,544
2019-05-11T12:18:48.582Z,600
2019-05-11T12:19:47.776Z,656
2019-05-11T12:20:48.009Z,748
2019-05-11T12:21:48.342Z,736
2019-05-11T12:22:47.590Z,740
2019-05-11T12:23:48.490Z,748
2019-05-11T12:24:48.126Z,784
2019-05-11T12:25:48.854Z,796
2019-05-11T12:26:47.987Z,896
2019-05-11T12:27:48.991Z,860
2019-05-11T12:28:48.946Z,724
2019-05-11T12:29:47.667Z,688
2019-05-11T12:30:48.039Z,668
2019-05-11T12:31:48.447Z,656
2019-05-11T12:32:48.692Z,644
2019-05-11T12:33:48.176Z,628
2019-05-11T12:34:48.186Z,620
2019-05-11T12:35:48.116Z,612
2019-05-11T12:36:47.946Z,592
2019-05-11T12:37:48.419Z,540
2019-05-11T12:38:48.770Z,492
2019-05-11T12:39:47.816Z,448
2019-05-11T12:40:47.686Z,404
2019-05-11T12:46:04.679Z,380
2019-05-11T12:46:18.812Z,512
2019-05-11T12:47:31.039Z,544
2019-05-11T12:48:18.036Z,556
2019-05-11T12:49:18.600Z,576
2019-05-11T12:50:28.551Z,612
2019-05-11T12:51:18.543Z,672
2019-05-11T12:52:18.410Z,700
2019-05-11T12:53:18.555Z,748
2019-05-11T12:54:18.635Z,816
2019-05-11T12:55:17.868Z,1392
2019-05-11T12:56:18.955Z,1464
2019-05-11T12:57:18.570Z,1736
2019-05-11T12:58:18.093Z,1376
2019-05-11T12:59:18.669Z,948
2019-05-11T13:00:17.718Z,856
2019-05-11T13:01:18.638Z,928
2019-05-11T13:02:18.386Z,1664
2019-05-11T13:03:18.838Z,1924
2019-05-11T13:04:18.131Z,1888
2019-05-11T13:05:17.982Z,1804
2019-05-11T13:06:18.714Z,1708
2019-05-11T13:07:21.497Z,1664
2019-05-11T13:08:18.365Z,1672
2019-05-11T13:09:18.280Z,1564
2019-05-11T13:10:17.683Z,832
2019-05-11T13:11:18.623Z,612
2019-05-11T13:12:18.561Z,600
2019-05-11T13:13:18.150Z,636
2019-05-11T13:14:18.400Z,664
2019-05-11T13:15:17.503Z,772
2019-05-11T13:16:18.264Z,864
2019-05-11T13:17:18.584Z,828
2019-05-11T13:18:18.539Z,872
2019-05-11T13:19:17.558Z,784
2019-05-11T13:20:25.782Z,876
2019-05-11T13:21:18.239Z,768
2019-05-11T13:22:18.289Z,752
2019-05-11T13:23:18.492Z,832
2019-05-11T13:24:18.547Z,720
2019-05-11T13:25:17.694Z,656
2019-05-11T13:26:20.742Z,576
2019-05-11T13:27:17.823Z,544
2019-05-11T13:28:17.910Z,524
2019-05-11T13:29:18.096Z,520
2019-05-11T13:30:18.347Z,524
2019-05-11T13:31:18.581Z,540
2019-05-11T13:32:18.512Z,556
2019-05-11T13:33:18.749Z,592
2019-05-11T13:34:17.858Z,636
2019-05-11T13:35:17.896Z,676
2019-05-11T13:36:18.531Z,788
2019-05-11T13:37:18.740Z,848
2019-05-11T13:38:17.824Z,692
2019-05-11T13:39:18.046Z,652
2019-05-11T13:40:18.389Z,620
2019-05-11T13:41:18.715Z,580
2019-05-11T13:42:16.865Z,564
2019-05-11T13:43:18.613Z,548
2019-05-11T13:44:18.569Z,536
2019-05-11T13:45:17.702Z,524
2019-05-11T13:46:17.918Z,524
2019-05-11T13:47:17.970Z,524
2019-05-11T13:48:17.642Z,520
2019-05-11T13:49:17.809Z,508
2019-05-11T13:50:29.405Z,492
2019-05-11T13:51:18.161Z,484
2019-05-11T13:52:17.981Z,472
2019-05-11T13:53:18.339Z,464
2019-05-11T13:54:18.413Z,452
2019-05-11T13:55:18.149Z,444
2019-05-11T13:56:18.273Z,436
2019-05-11T13:57:18.116Z,440
2019-05-11T13:58:19.701Z,456
2019-05-11T13:59:18.962Z,484
2019-05-11T14:00:17.594Z,524
2019-05-11T14:01:18.374Z,568
2019-05-11T14:02:20.738Z,596
2019-05-11T14:03:18.391Z,564
2019-05-11T14:04:18.089Z,596
2019-05-11T14:05:17.980Z,564
2019-05-11T14:06:18.340Z,556
2019-05-11T14:07:18.590Z,548
2019-05-11T14:08:18.519Z,524
2019-05-11T14:09:18.359Z,500
2019-05-11T14:10:18.026Z,476
2019-05-11T14:11:18.111Z,464
2019-05-11T14:12:18.158Z,460
2019-05-11T14:13:18.098Z,472
2019-05-11T14:14:18.338Z,508
2019-05-11T14:15:18.733Z,640
2019-05-11T14:16:18.528Z,704
2019-05-11T14:17:18.607Z,704
2019-05-11T14:18:20.890Z,564
2019-05-11T14:19:17.848Z,500
2019-05-11T14:20:28.885Z,456
2019-05-11T14:21:18.475Z,432
2019-05-11T14:22:17.856Z,424
2019-05-11T14:23:18.213Z,432
2019-05-11T14:24:18.323Z,440
2019-05-11T14:25:18.477Z,436
2019-05-11T14:26:19.087Z,436
2019-05-11T14:27:17.723Z,440
2019-05-11T14:28:17.933Z,440
2019-05-11T14:29:17.951Z,444
2019-05-11T14:30:19.027Z,468
2019-05-11T14:31:18.827Z,476
2019-05-11T14:32:17.241Z,404
2019-05-11T14:33:18.002Z,336
2019-05-11T14:34:18.118Z,292
2019-05-11T14:35:21.543Z,248
2019-05-11T14:36:18.273Z,212
2019-05-11T14:37:18.021Z,172
2019-05-11T14:38:18.727Z,140
2019-05-11T14:39:18.669Z,128
2019-05-11T14:40:17.777Z,124
2019-05-11T14:41:18.133Z,144
2019-05-11T14:42:21.845Z,176
2019-05-11T14:43:18.727Z,216
2019-05-11T14:44:18.078Z,260
2019-05-11T14:45:18.646Z,300
2019-05-11T14:46:18.041Z,332
2019-05-11T14:47:17.868Z,336
2019-05-11T14:48:35.496Z,312
2019-05-11T14:49:18.338Z,300
2019-05-11T14:51:17.936Z,288
2019-05-11T14:52:18.725Z,288
2019-05-11T14:53:17.837Z,292
2019-05-11T14:54:18.721Z,284
2019-05-11T14:55:18.341Z,280
2019-05-11T14:56:18.938Z,268
2019-05-11T14:57:18.591Z,256
2019-05-11T14:58:19.664Z,240
2019-05-11T14:59:18.320Z,228
2019-05-11T15:00:18.490Z,220
2019-05-11T15:01:21.102Z,216